createdAt,value
2022-11-23T00:10:55.881Z,1.70
2022-11-23T00:24:56.187Z,1.80
2022-11-23T00:38:56.051Z,2.00
2022-11-23T00:52:55.985Z,1.40
2022-11-23T01:06:55.999Z,1.60
2022-11-23T01:20:56.002Z,1.40
2022-11-23T01:34:55.970Z,1.40
2022-11-23T01:48:55.996Z,1.10
2022-11-23T02:02:56.044Z,0.95
2022-11-23T02:16:56.037Z,1.05
2022-11-23T02:30:56.048Z,0.80
2022-11-23T02:44:56.032Z,1.00
2022-11-23T02:50:26.982Z,1.00
2022-11-23T02:59:47.401Z,1.00
2022-11-23T03:09:49.233Z,0.80
2022-11-23T03:23:49.157Z,1.00
2022-11-23T03:37:49.232Z,1.20
2022-11-23T03:40:17.459Z,0.65
2022-11-23T03:53:16.694Z,0.90
2022-11-23T04:07:17.045Z,0.80
2022-11-23T04:21:16.978Z,1.00
2022-11-23T04:35:16.971Z,0.60
2022-11-23T04:49:17.079Z,1.00
2022-11-23T05:03:17.159Z,3.30
2022-11-23T05:17:17.220Z,3.30
2022-11-23T05:31:17.333Z,4.70
2022-11-23T05:45:17.422Z,4.70
2022-11-23T05:59:17.481Z,3.90
2022-11-23T06:13:17.519Z,3.20
2022-11-23T06:28:17.504Z,5.30
2022-11-23T06:43:17.516Z,3.80
2022-11-23T06:58:17.631Z,3.50
2022-11-23T07:13:17.574Z,2.60
2022-11-23T07:28:17.629Z,2.20
2022-11-23T07:43:17.617Z,2.00
2022-11-23T07:58:17.644Z,2.75
2022-11-23T08:13:17.675Z,2.85
2022-11-23T08:28:17.740Z,1.70
2022-11-23T08:43:17.728Z,4.70
2022-11-23T08:58:17.755Z,2.80
2022-11-23T09:13:17.815Z,2.50
2022-11-23T09:28:17.844Z,2.90
2022-11-23T09:43:17.887Z,2.30
2022-11-23T09:58:17.880Z,6.10
2022-11-23T10:13:17.944Z,7.30
2022-11-23T10:29:17.933Z,6.30
2022-11-23T10:41:46.025Z,4.50
2022-11-23T10:56:45.924Z,3.40
2022-11-23T11:11:45.992Z,2.90
2022-11-23T11:26:46.100Z,3.20
2022-11-23T11:41:46.119Z,5.05
2022-11-23T11:57:46.287Z,4.40
2022-11-23T12:13:46.374Z,10.00
2022-11-23T12:28:46.497Z,28.90
2022-11-23T12:44:46.468Z,31.20
2022-11-23T12:59:46.655Z,24.55
2022-11-23T13:15:46.664Z,25.20
2022-11-23T13:31:13.752Z,22.10
2022-11-23T13:45:46.756Z,20.20
2022-11-23T14:00:47.279Z,18.70
2022-11-23T14:15:47.003Z,15.50
2022-11-23T14:30:47.018Z,15.50
2022-11-23T14:45:47.053Z,18.70
2022-11-23T15:01:47.022Z,11.25
2022-11-23T15:16:47.223Z,12.80
2022-11-23T15:32:00.617Z,11.60
2022-11-23T15:46:47.230Z,9.10
2022-11-23T16:01:47.257Z,9.30
2022-11-23T16:16:47.229Z,7.00
2022-11-23T16:30:47.292Z,6.50
2022-11-23T16:44:47.244Z,8.70
2022-11-23T16:58:47.197Z,5.70
2022-11-23T17:12:47.253Z,6.50
2022-11-23T17:26:47.276Z,6.50
2022-11-23T17:40:47.312Z,4.90
2022-11-23T17:54:47.315Z,5.00
2022-11-23T18:08:47.350Z,5.20
2022-11-23T18:22:47.363Z,6.75
2022-11-23T18:36:47.668Z,4.70
2022-11-23T18:50:47.395Z,5.20
2022-11-23T19:04:47.570Z,4.00
2022-11-23T19:18:47.367Z,4.90
2022-11-23T19:32:47.578Z,4.80
2022-11-23T19:46:47.462Z,4.30
2022-11-23T20:00:47.681Z,3.30
2022-11-23T20:14:47.494Z,3.90
2022-11-23T20:28:47.388Z,7.00
2022-11-23T20:42:47.468Z,16.70
2022-11-23T20:56:47.635Z,23.50
2022-11-23T21:10:47.467Z,26.00
2022-11-23T21:24:47.519Z,26.10
2022-11-23T21:38:47.489Z,23.70
2022-11-23T21:52:47.508Z,23.55
2022-11-23T22:06:47.529Z,22.85
2022-11-23T22:20:47.498Z,23.90
2022-11-23T22:34:47.488Z,22.90
2022-11-23T22:48:47.507Z,22.40
2022-11-23T23:02:47.636Z,21.80
2022-11-23T23:16:47.584Z,20.00
2022-11-23T23:30:47.535Z,20.30
2022-11-23T23:44:47.531Z,18.10
2022-11-23T23:58:47.582Z,17.50
